Airport View

Enter AWOS ICAO identifier for current METAR.

ex. KFNL

KNFE 261156Z AUTO 35004KT 10SM BKN090 27/21 A3007 RMK AO2 SLP184 T02670206 10267 20228 53018

26 Jun 2019 12:30

Other Area AWOS: KCPK - KNTU - KORF - KPVG

TAF KNTU 2607/2707 VRB06KT 9999 SCT085 BKN280 QNH2994INS BECMG 2613/1615 02008KT 9999 FEW050 SCT250 QNH3006INS BECMG 2622/2623 VRB04KT 9999 FEW250 QNH3007INS T22/2610Z T30/2620Z FN00194